Time;durP1;ratioP1;P1;durP2;ratioP2;P2;SDS_P1;SDS_P2;PMS_P1;PMS_P2;Temp;Humidity;BMP_temperature;BMP_pressure;BME280_temperature;BME280_humidity;BME280_pressure;Samples;Min_cycle;Max_cycle;Signal;HPM_P1;HPM_P2
2023/01/20 00:01:05;;;;;;;51.67;21.98;;;0.40;99.90;;;;;;5084341;28;20112;-41
2023/01/20 00:03:31;;;;;;;57.90;22.45;;;0.40;99.90;;;;;;5074582;28;20039;-40
2023/01/20 00:05:56;;;;;;;50.25;21.92;;;0.50;99.90;;;;;;5082744;28;20028;-39
2023/01/20 00:08:22;;;;;;;47.25;22.05;;;0.50;99.90;;;;;;5091035;28;20051;-39
2023/01/20 00:10:47;;;;;;;51.78;23.75;;;0.50;99.90;;;;;;5072970;28;20440;-39
2023/01/20 00:13:13;;;;;;;56.05;23.30;;;0.50;99.90;;;;;;5091441;28;20024;-39
2023/01/20 00:15:39;;;;;;;51.92;21.77;;;0.50;99.90;;;;;;5090415;28;20444;-40
2023/01/20 00:18:04;;;;;;;55.67;23.42;;;0.50;99.90;;;;;;5070287;28;20377;-40
2023/01/20 00:20:30;;;;;;;55.63;22.80;;;0.50;99.90;;;;;;5071305;28;20396;-41
2023/01/20 00:22:55;;;;;;;53.97;21.95;;;0.50;99.90;;;;;;5070227;28;20153;-38
2023/01/20 00:25:21;;;;;;;46.88;21.67;;;0.50;99.90;;;;;;5070224;28;20096;-41
2023/01/20 00:27:46;;;;;;;48.10;21.80;;;0.50;99.90;;;;;;5070428;28;20016;-40
2023/01/20 00:30:12;;;;;;;52.38;23.60;;;0.50;99.90;;;;;;5070803;28;20032;-40
2023/01/20 00:32:43;;;;;;;47.88;21.80;;;0.40;99.90;;;;;;5070339;28;20367;-40
2023/01/20 00:35:09;;;;;;;49.70;21.70;;;0.50;99.90;;;;;;5070126;28;20024;-39
2023/01/20 00:37:35;;;;;;;47.85;21.20;;;0.40;99.90;;;;;;5070337;28;20035;-39
2023/01/20 00:40:01;;;;;;;48.47;21.70;;;0.40;99.90;;;;;;5051962;28;20397;-39
2023/01/20 00:42:26;;;;;;;51.05;23.27;;;0.40;99.90;;;;;;5070219;28;20025;-38
2023/01/20 00:44:52;;;;;;;52.60;21.85;;;0.40;99.90;;;;;;5070033;28;20016;-39
2023/01/20 00:47:19;;;;;;;47.05;21.30;;;0.40;99.90;;;;;;5078256;28;20020;-39
2023/01/20 00:49:45;;;;;;;49.80;24.42;;;0.30;99.90;;;;;;5083156;28;20103;-39
2023/01/20 00:52:11;;;;;;;45.58;21.30;;;0.40;99.90;;;;;;5073432;28;20123;-39
2023/01/20 00:54:36;;;;;;;50.63;21.45;;;0.40;99.90;;;;;;5069353;28;20024;-39
2023/01/20 00:57:02;;;;;;;54.67;21.08;;;0.40;99.90;;;;;;5070073;28;20048;-39
2023/01/20 00:59:28;;;;;;;55.30;23.67;;;0.40;99.90;;;;;;5070101;28;20027;-39
2023/01/20 01:01:53;;;;;;;49.55;22.77;;;0.40;99.90;;;;;;5069804;28;20028;-39
2023/01/20 01:04:19;;;;;;;50.25;20.70;;;0.40;99.90;;;;;;5070111;28;20024;-39
2023/01/20 01:06:44;;;;;;;53.90;21.73;;;0.40;99.90;;;;;;5069535;28;20056;-39
2023/01/20 01:09:10;;;;;;;51.60;22.60;;;0.40;99.90;;;;;;5051855;28;20406;-39
2023/01/20 01:11:35;;;;;;;49.35;20.77;;;0.40;99.90;;;;;;5069461;28;20024;-39
2023/01/20 01:14:01;;;;;;;53.13;21.65;;;0.40;99.90;;;;;;5068693;28;20029;-39
2023/01/20 01:16:26;;;;;;;47.45;21.17;;;0.40;99.90;;;;;;5070669;28;20029;-39
2023/01/20 01:18:53;;;;;;;48.05;20.48;;;0.40;99.90;;;;;;5081377;28;20024;-39
2023/01/20 01:21:19;;;;;;;45.80;20.08;;;0.50;99.90;;;;;;5080382;28;20073;-39
2023/01/20 01:23:45;;;;;;;44.03;21.70;;;0.50;99.90;;;;;;5069171;28;20521;-39
2023/01/20 01:26:11;;;;;;;44.05;21.90;;;0.50;99.90;;;;;;5068882;28;20047;-39
2023/01/20 01:28:37;;;;;;;48.40;20.83;;;0.60;99.90;;;;;;5051293;28;20024;-39
2023/01/20 01:31:03;;;;;;;40.33;19.63;;;0.60;99.90;;;;;;5068935;28;20035;-39
2023/01/20 01:33:29;;;;;;;43.05;18.85;;;0.60;99.90;;;;;;5068969;28;20016;-39
2023/01/20 01:35:56;;;;;;;43.05;19.67;;;0.60;99.90;;;;;;5068662;28;20032;-39
2023/01/20 01:38:22;;;;;;;44.85;21.45;;;0.60;99.90;;;;;;5068763;28;20237;-39
2023/01/20 01:40:49;;;;;;;46.40;21.05;;;0.60;99.90;;;;;;5068900;28;20029;-39
2023/01/20 01:43:33;;;;;;;48.22;21.30;;;0.60;99.90;;;;;;5069132;28;20535;-39
2023/01/20 01:45:59;;;;;;;42.78;19.13;;;0.60;99.90;;;;;;5068739;28;20039;-39
2023/01/20 01:48:27;;;;;;;43.28;19.27;;;0.50;99.90;;;;;;5060823;28;20024;-39
2023/01/20 01:50:58;;;;;;;46.22;18.98;;;0.50;99.90;;;;;;5083271;28;20028;-39
2023/01/20 01:53:28;;;;;;;40.70;20.27;;;0.50;99.90;;;;;;5068543;28;20032;-39
2023/01/20 01:55:59;;;;;;;43.50;20.75;;;0.50;99.90;;;;;;5068657;28;20469;-39
2023/01/20 01:58:31;;;;;;;50.65;21.10;;;0.40;99.90;;;;;;5068934;28;20070;-39
2023/01/20 02:00:56;;;;;;;42.65;19.02;;;0.40;99.90;;;;;;5069282;28;20099;-39
2023/01/20 02:03:22;;;;;;;42.40;20.67;;;0.40;99.90;;;;;;5068375;28;20111;-39
2023/01/20 02:05:50;;;;;;;40.35;18.35;;;0.40;99.90;;;;;;5067989;28;20087;-39
2023/01/20 02:08:16;;;;;;;51.45;21.33;;;0.40;99.90;;;;;;5068315;28;20229;-39
2023/01/20 02:10:42;;;;;;;45.33;19.85;;;0.30;99.90;;;;;;5068269;28;20587;-39
2023/01/20 02:13:07;;;;;;;39.15;19.83;;;0.30;99.90;;;;;;5068579;28;20682;-39
2023/01/20 02:15:49;;;;;;;42.70;20.23;;;0.30;99.90;;;;;;5068079;28;20024;-39
2023/01/20 02:18:31;;;;;;;43.63;19.85;;;0.30;99.90;;;;;;5073723;28;20017;-39
2023/01/20 02:21:12;;;;;;;51.00;20.38;;;0.20;99.90;;;;;;5064018;28;20495;-39
2023/01/20 02:23:44;;;;;;;41.92;21.08;;;0.20;99.90;;;;;;5068212;28;20392;-39
2023/01/20 02:26:22;;;;;;;38.05;19.58;;;0.20;99.90;;;;;;5067489;28;20390;-39
2023/01/20 02:28:57;;;;;;;46.85;19.85;;;0.20;99.90;;;;;;5068257;28;20051;-39
2023/01/20 02:31:25;;;;;;;51.22;20.65;;;0.10;99.90;;;;;;5050085;28;20060;-39
2023/01/20 02:34:05;;;;;;;49.85;19.67;;;0.10;99.90;;;;;;5068054;28;20031;-39
2023/01/20 02:36:46;;;;;;;49.28;20.58;;;0.10;99.90;;;;;;5050042;28;20025;-39
2023/01/20 02:39:22;;;;;;;43.53;20.30;;;0.10;99.90;;;;;;5068182;28;20078;-39
2023/01/20 02:42:10;;;;;;;42.35;19.33;;;0.10;99.90;;;;;;5068386;28;20032;-39
2023/01/20 02:44:45;;;;;;;47.65;21.08;;;0.00;99.90;;;;;;5068051;28;20482;-39
2023/01/20 02:47:29;;;;;;;42.85;21.45;;;0.00;99.90;;;;;;5071861;28;20039;-39
2023/01/20 02:50:06;;;;;;;40.95;18.90;;;0.00;99.90;;;;;;5076786;28;20024;-39
2023/01/20 02:52:36;;;;;;;40.58;19.20;;;0.00;99.90;;;;;;5069006;28;20108;-39
2023/01/20 02:55:09;;;;;;;40.30;19.42;;;0.00;99.90;;;;;;5066337;28;20028;-39
2023/01/20 02:57:43;;;;;;;48.38;20.65;;;-0.10;99.90;;;;;;5067876;28;20516;-39
2023/01/20 03:00:15;;;;;;;49.95;20.20;;;-0.10;99.90;;;;;;5068350;28;20027;-39
2023/01/20 03:02:44;;;;;;;48.42;21.08;;;-0.10;99.90;;;;;;5067809;28;20021;-39
2023/01/20 03:05:16;;;;;;;43.80;20.73;;;-0.20;99.90;;;;;;5067674;28;20025;-39
2023/01/20 03:07:44;;;;;;;48.13;22.77;;;-0.20;99.90;;;;;;5067856;28;20032;-38
2023/01/20 03:10:13;;;;;;;51.67;20.52;;;-0.30;99.90;;;;;;5068103;28;20027;-39
2023/01/20 03:12:46;;;;;;;49.85;19.90;;;-0.30;99.90;;;;;;5067695;28;20370;-39
2023/01/20 03:15:13;;;;;;;48.67;20.50;;;-0.30;99.90;;;;;;5067506;28;20378;-39
2023/01/20 03:17:39;;;;;;;43.60;19.30;;;-0.30;99.90;;;;;;5072029;28;20091;-39
2023/01/20 03:20:05;;;;;;;45.80;20.27;;;-0.30;99.90;;;;;;5083651;28;20585;-39
2023/01/20 03:22:31;;;;;;;42.70;18.83;;;-0.30;99.90;;;;;;5067358;28;20122;-39
2023/01/20 03:24:58;;;;;;;41.80;18.52;;;-0.30;99.90;;;;;;5067127;28;20060;-45
2023/01/20 03:27:25;;;;;;;42.22;20.52;;;-0.20;99.90;;;;;;5067910;28;20028;-39
2023/01/20 03:29:50;;;;;;;43.70;20.52;;;-0.20;99.90;;;;;;5067894;28;20103;-39
2023/01/20 03:32:24;;;;;;;43.35;20.25;;;-0.20;99.90;;;;;;5067426;28;20105;-39
2023/01/20 03:34:52;;;;;;;49.30;19.15;;;-0.20;99.90;;;;;;5065595;28;20024;-39
2023/01/20 03:37:17;;;;;;;43.33;19.85;;;-0.10;99.90;;;;;;5069241;28;20016;-39
2023/01/20 03:39:43;;;;;;;44.47;19.15;;;-0.10;99.90;;;;;;5071958;28;20516;-39
2023/01/20 03:42:18;;;;;;;45.50;18.95;;;-0.10;99.90;;;;;;5071723;28;20508;-39
2023/01/20 03:45:09;;;;;;;44.13;21.52;;;-0.10;99.90;;;;;;5071253;28;20017;-39
2023/01/20 03:47:57;;;;;;;36.58;17.83;;;-0.10;99.90;;;;;;5071352;28;20024;-39
2023/01/20 03:50:34;;;;;;;45.22;19.02;;;0.00;99.90;;;;;;5088620;28;20085;-39
2023/01/20 03:53:18;;;;;;;38.80;19.50;;;0.00;99.90;;;;;;5071372;28;20023;-39
2023/01/20 03:56:03;;;;;;;36.72;18.52;;;0.00;99.90;;;;;;5071136;28;20024;-40
2023/01/20 03:58:36;;;;;;;41.33;18.73;;;0.00;99.90;;;;;;5071546;28;20020;-39
2023/01/20 04:01:06;;;;;;;41.85;19.02;;;0.00;99.90;;;;;;5071646;28;20502;-39
2023/01/20 04:03:36;;;;;;;41.55;18.77;;;-0.10;99.90;;;;;;5071020;28;20086;-39
2023/01/20 04:06:05;;;;;;;39.13;19.23;;;0.00;99.90;;;;;;5070701;28;20028;-39
2023/01/20 04:08:35;;;;;;;42.92;18.90;;;0.00;99.90;;;;;;5071407;28;20025;-39
2023/01/20 04:11:04;;;;;;;42.15;20.63;;;0.00;99.90;;;;;;5071562;28;20090;-39
2023/01/20 04:13:30;;;;;;;38.83;18.65;;;0.00;99.90;;;;;;5071693;28;20473;-39
2023/01/20 04:15:59;;;;;;;40.55;19.58;;;0.10;99.90;;;;;;5067014;28;20035;-39
2023/01/20 04:18:25;;;;;;;50.80;18.98;;;0.10;99.90;;;;;;5079632;28;20036;-39
2023/01/20 04:20:55;;;;;;;46.50;18.85;;;0.10;99.90;;;;;;5085934;28;20025;-39
2023/01/20 04:23:25;;;;;;;39.53;17.52;;;0.10;99.90;;;;;;5070787;28;20086;-39
2023/01/20 04:25:50;;;;;;;40.38;19.40;;;0.10;99.90;;;;;;5070511;28;20544;-39
2023/01/20 04:28:16;;;;;;;39.47;19.33;;;0.00;99.90;;;;;;5070961;28;20035;-39
2023/01/20 04:30:41;;;;;;;37.10;18.35;;;0.00;99.90;;;;;;5071415;28;20028;-39
2023/01/20 04:33:07;;;;;;;53.47;21.00;;;0.00;99.90;;;;;;5070714;28;20028;-39
2023/01/20 04:35:32;;;;;;;42.92;20.63;;;0.00;99.90;;;;;;5067760;28;20212;-39
2023/01/20 04:37:58;;;;;;;39.50;18.85;;;0.00;99.90;;;;;;5062696;28;20078;-39
2023/01/20 04:40:23;;;;;;;43.53;19.60;;;-0.10;99.90;;;;;;5063776;28;20499;-39
2023/01/20 04:42:49;;;;;;;38.83;19.17;;;0.00;99.90;;;;;;5060254;28;20025;-39
2023/01/20 04:45:15;;;;;;;42.45;20.65;;;0.00;99.90;;;;;;5057966;28;20021;-39
2023/01/20 04:47:41;;;;;;;38.55;19.05;;;-0.10;99.90;;;;;;5063280;28;20024;-39
2023/01/20 04:50:08;;;;;;;39.33;19.90;;;0.00;99.90;;;;;;5058338;28;20036;-39
2023/01/20 04:52:34;;;;;;;35.25;18.30;;;0.00;99.90;;;;;;5063541;28;20016;-38
2023/01/20 04:54:59;;;;;;;43.20;17.10;;;0.00;99.90;;;;;;5060289;28;20090;-39
2023/01/20 04:57:25;;;;;;;42.85;19.73;;;0.00;99.90;;;;;;5058744;28;20024;-39
2023/01/20 04:59:50;;;;;;;39.33;18.92;;;0.00;99.90;;;;;;5059316;28;20039;-40
2023/01/20 05:02:16;;;;;;;47.72;19.70;;;0.00;99.90;;;;;;5062095;28;20016;-39
2023/01/20 05:04:41;;;;;;;41.25;20.67;;;0.00;99.90;;;;;;5052415;28;20020;-40
2023/01/20 05:07:07;;;;;;;44.00;19.80;;;0.00;99.90;;;;;;5050771;28;20029;-40
2023/01/20 05:09:32;;;;;;;41.88;18.02;;;0.00;99.90;;;;;;5062828;28;20049;-40
2023/01/20 05:11:58;;;;;;;44.47;19.73;;;0.00;99.90;;;;;;5058233;28;20390;-40
2023/01/20 05:14:24;;;;;;;37.60;19.20;;;0.00;99.90;;;;;;5069402;28;20025;-40
2023/01/20 05:16:49;;;;;;;42.95;18.40;;;0.00;99.90;;;;;;5070419;28;20028;-39
2023/01/20 05:19:15;;;;;;;38.58;19.08;;;-0.10;99.90;;;;;;5081490;28;20048;-40
2023/01/20 05:21:41;;;;;;;42.38;19.60;;;-0.10;99.90;;;;;;5078189;28;20035;-39
2023/01/20 05:24:07;;;;;;;40.22;19.38;;;-0.20;99.90;;;;;;5069873;28;20077;-40
2023/01/20 05:26:33;;;;;;;45.78;20.30;;;-0.10;99.90;;;;;;5069400;28;20624;-40
2023/01/20 05:28:59;;;;;;;44.45;22.63;;;-0.20;99.90;;;;;;5069891;28;20029;-40
2023/01/20 05:31:25;;;;;;;39.50;19.85;;;-0.20;99.90;;;;;;5069745;28;20025;-39
2023/01/20 05:33:50;;;;;;;51.85;21.08;;;-0.20;99.90;;;;;;5068986;28;20020;-40
2023/01/20 05:36:16;;;;;;;46.25;20.55;;;-0.20;99.90;;;;;;5068948;28;20024;-40
2023/01/20 05:38:41;;;;;;;45.08;20.00;;;-0.30;99.90;;;;;;5067773;28;20103;-40
2023/01/20 05:41:08;;;;;;;44.83;20.27;;;-0.30;99.90;;;;;;5069365;28;20039;-40
2023/01/20 05:43:34;;;;;;;50.60;23.20;;;-0.30;99.90;;;;;;5069343;28;20033;-39
2023/01/20 05:46:00;;;;;;;40.88;20.00;;;-0.40;99.90;;;;;;5066593;28;20056;-39
2023/01/20 05:48:26;;;;;;;43.75;19.90;;;-0.40;99.90;;;;;;5077952;28;20067;-39
2023/01/20 05:50:52;;;;;;;37.60;19.55;;;-0.40;99.90;;;;;;5084000;28;20063;-39
2023/01/20 05:53:17;;;;;;;44.10;20.35;;;-0.40;99.90;;;;;;5054208;28;20025;-39
2023/01/20 05:55:43;;;;;;;41.00;20.15;;;-0.40;99.90;;;;;;5076181;28;20028;-39
2023/01/20 05:58:09;;;;;;;40.53;20.67;;;-0.40;99.90;;;;;;5069126;28;20060;-40
2023/01/20 06:00:35;;;;;;;50.33;23.45;;;-0.40;99.90;;;;;;5068578;28;20031;-40
2023/01/20 06:03:00;;;;;;;45.90;20.40;;;-0.40;99.90;;;;;;5068745;28;20028;-44
2023/01/20 06:05:26;;;;;;;40.53;20.55;;;-0.30;99.90;;;;;;5067004;28;20028;-39
2023/01/20 06:07:56;;;;;;;50.67;22.65;;;-0.40;99.90;;;;;;5057737;28;20099;-40
2023/01/20 06:10:24;;;;;;;47.67;20.97;;;-0.40;99.90;;;;;;5067508;28;20028;-40
2023/01/20 06:12:55;;;;;;;47.22;21.83;;;-0.40;99.90;;;;;;5068408;28;20078;-41
2023/01/20 06:15:22;;;;;;;44.30;20.40;;;-0.40;99.90;;;;;;5068059;28;20389;-41
2023/01/20 06:17:49;;;;;;;52.75;21.05;;;-0.40;99.90;;;;;;5071133;28;20016;-40
2023/01/20 06:20:15;;;;;;;46.33;20.08;;;-0.40;99.90;;;;;;5085518;28;20016;-40
2023/01/20 06:22:40;;;;;;;42.22;21.48;;;-0.40;99.90;;;;;;5068721;28;20017;-41
2023/01/20 06:25:07;;;;;;;50.33;21.10;;;-0.40;99.90;;;;;;5068988;28;20530;-39
2023/01/20 06:27:32;;;;;;;43.95;19.40;;;-0.40;99.90;;;;;;5068743;28;20031;-40
2023/01/20 06:29:58;;;;;;;40.40;19.98;;;-0.40;99.90;;;;;;5069268;28;20017;-39
2023/01/20 06:32:23;;;;;;;48.10;21.05;;;-0.40;99.90;;;;;;5062110;28;20048;-40
2023/01/20 06:34:51;;;;;;;46.00;21.38;;;-0.40;99.90;;;;;;5062962;28;20207;-41
2023/01/20 06:37:17;;;;;;;46.25;22.50;;;-0.40;99.90;;;;;;5071488;28;20107;-40
2023/01/20 06:39:42;;;;;;;39.78;20.80;;;-0.50;99.90;;;;;;5077189;28;20099;-38
2023/01/20 06:42:08;;;;;;;42.90;18.33;;;-0.40;99.90;;;;;;5076650;28;20036;-40
2023/01/20 06:44:34;;;;;;;43.33;20.88;;;-0.40;99.90;;;;;;5083807;28;20047;-40
2023/01/20 06:46:59;;;;;;;45.40;19.70;;;-0.40;99.90;;;;;;5071743;28;20028;-40
2023/01/20 06:49:25;;;;;;;45.92;22.95;;;-0.50;99.90;;;;;;5082548;28;20055;-39
2023/01/20 06:51:51;;;;;;;47.67;21.10;;;-0.50;99.90;;;;;;5068530;28;20039;-41
2023/01/20 06:54:16;;;;;;;41.38;19.90;;;-0.50;99.90;;;;;;5071677;28;20099;-40
2023/01/20 06:56:42;;;;;;;45.88;20.90;;;-0.50;99.90;;;;;;5062196;28;20016;-40
2023/01/20 06:59:11;;;;;;;47.35;21.17;;;-0.50;99.90;;;;;;5063840;28;20447;-41
2023/01/20 07:01:38;;;;;;;39.75;18.33;;;-0.50;99.90;;;;;;5058233;28;20029;-40
2023/01/20 07:04:04;;;;;;;37.10;18.90;;;-0.50;99.90;;;;;;5077860;28;20021;-40
2023/01/20 07:06:30;;;;;;;35.38;17.52;;;-0.50;99.90;;;;;;5074801;28;20023;-40
2023/01/20 07:08:57;;;;;;;36.03;16.77;;;-0.50;99.90;;;;;;5068482;28;20477;-40
2023/01/20 07:11:23;;;;;;;33.30;16.23;;;-0.60;99.90;;;;;;5068411;28;20042;-40
2023/01/20 07:13:49;;;;;;;37.72;17.33;;;-0.60;99.90;;;;;;5072246;28;20490;-40
2023/01/20 07:16:15;;;;;;;41.30;17.92;;;-0.60;99.90;;;;;;5072186;28;20390;-40
2023/01/20 07:18:40;;;;;;;37.20;17.92;;;-0.70;99.90;;;;;;5072038;28;20379;-40
2023/01/20 07:21:08;;;;;;;43.72;19.05;;;-0.70;99.90;;;;;;5073608;28;20035;-40
2023/01/20 07:23:33;;;;;;;32.65;16.38;;;-0.70;99.90;;;;;;5071650;28;20515;-40
2023/01/20 07:26:10;;;;;;;33.58;16.20;;;-0.80;99.90;;;;;;5066138;28;20063;-40
2023/01/20 07:28:36;;;;;;;36.65;16.73;;;-0.80;99.90;;;;;;5070729;28;20035;-40
2023/01/20 07:31:07;;;;;;;40.00;18.85;;;-0.80;99.90;;;;;;5084430;28;20035;-39
2023/01/20 07:33:32;;;;;;;;;;;-0.90;99.90;;;;;;5090062;28;20032;-39
2023/01/20 07:35:58;;;;;;;36.03;17.52;;;-0.90;99.90;;;;;;5079589;28;20412;-39
2023/01/20 07:38:24;;;;;;;40.15;18.27;;;-0.90;99.90;;;;;;5073703;28;20020;-39
2023/01/20 07:40:49;;;;;;;39.05;18.80;;;-1.00;99.90;;;;;;5071674;28;20017;-39
2023/01/20 07:43:15;;;;;;;33.35;16.90;;;-1.00;99.90;;;;;;5076893;28;20106;-39
2023/01/20 07:45:41;;;;;;;32.72;17.50;;;-1.00;99.90;;;;;;5083056;28;20106;-39
2023/01/20 07:48:06;;;;;;;34.67;17.00;;;-0.90;99.90;;;;;;5072548;28;20024;-40
2023/01/20 07:50:36;;;;;;;38.88;17.17;;;-1.00;99.90;;;;;;5071080;28;20170;-39
2023/01/20 07:53:02;;;;;;;35.47;16.27;;;-0.90;99.90;;;;;;5071759;28;20232;-39
2023/01/20 07:55:28;;;;;;;46.40;19.52;;;-0.80;99.90;;;;;;5071388;28;20263;-40
2023/01/20 07:57:53;;;;;;;42.88;20.65;;;-0.80;99.90;;;;;;5080065;28;20020;-39
2023/01/20 08:00:19;;;;;;;41.13;20.85;;;-0.70;99.90;;;;;;5070009;28;20449;-39
2023/01/20 08:02:45;;;;;;;38.15;19.48;;;-0.70;99.90;;;;;;5076036;28;20008;-39
2023/01/20 08:05:11;;;;;;;45.08;21.85;;;-0.60;99.90;;;;;;5078324;28;20036;-39
2023/01/20 08:07:36;;;;;;;41.72;19.42;;;-0.50;99.90;;;;;;5072437;28;20005;-39
2023/01/20 08:10:02;;;;;;;39.38;19.73;;;-0.50;99.90;;;;;;5077078;28;20157;-40
2023/01/20 08:12:28;;;;;;;37.78;18.63;;;-0.40;99.90;;;;;;5078100;28;20031;-39
2023/01/20 08:14:54;;;;;;;45.58;21.10;;;-0.30;99.90;;;;;;5072027;28;20017;-39
2023/01/20 08:17:20;;;;;;;38.88;19.88;;;-0.20;99.90;;;;;;5058227;28;20424;-40
2023/01/20 08:19:45;;;;;;;42.05;21.50;;;0.00;99.90;;;;;;5072535;28;20389;-39
2023/01/20 08:22:11;;;;;;;44.05;20.27;;;0.10;99.90;;;;;;5072752;28;20424;-39
2023/01/20 08:24:36;;;;;;;38.90;19.00;;;0.20;99.90;;;;;;5073793;28;20032;-40
2023/01/20 08:27:02;;;;;;;39.90;19.88;;;0.30;99.90;;;;;;5074326;28;20027;-40
2023/01/20 08:29:28;;;;;;;40.47;20.10;;;0.40;99.90;;;;;;5069679;28;20027;-40
2023/01/20 08:31:54;;;;;;;39.65;19.15;;;0.50;99.90;;;;;;5076493;28;20384;-40
2023/01/20 08:34:20;;;;;;;43.95;18.73;;;0.60;99.90;;;;;;5071272;28;20028;-40
2023/01/20 08:36:48;;;;;;;36.20;17.55;;;0.80;99.90;;;;;;5062543;28;20100;-40
2023/01/20 08:39:17;;;;;;;36.53;19.27;;;0.80;99.90;;;;;;5071365;28;20060;-40
2023/01/20 08:41:44;;;;;;;38.22;18.58;;;0.90;99.90;;;;;;5067747;28;20021;-39
2023/01/20 08:44:10;;;;;;;34.58;17.58;;;0.90;99.90;;;;;;5073473;28;20024;-39
2023/01/20 08:46:37;;;;;;;41.20;20.58;;;0.90;99.90;;;;;;5066254;28;20481;-39
2023/01/20 08:49:08;;;;;;;43.17;20.00;;;0.90;99.90;;;;;;5068060;28;20514;-39
2023/01/20 08:51:33;;;;;;;38.50;19.88;;;0.90;99.90;;;;;;5068368;28;20705;-39
2023/01/20 08:54:00;;;;;;;46.80;20.30;;;0.90;99.90;;;;;;5085886;28;20092;-38
2023/01/20 08:56:25;;;;;;;35.97;18.70;;;0.90;99.90;;;;;;5069809;28;20021;-39
2023/01/20 08:58:52;;;;;;;43.78;19.95;;;1.00;99.90;;;;;;5071252;28;20143;-38
2023/01/20 09:01:20;;;;;;;33.65;18.52;;;1.10;99.90;;;;;;5076965;28;20026;-38
2023/01/20 09:03:46;;;;;;;43.53;19.73;;;1.20;99.90;;;;;;5066300;28;20025;-39
2023/01/20 09:06:12;;;;;;;42.50;19.67;;;1.20;99.90;;;;;;5077690;28;20431;-40
2023/01/20 09:08:38;;;;;;;38.15;19.45;;;1.20;99.90;;;;;;5072805;28;20051;-39
2023/01/20 09:11:07;;;;;;;32.20;18.15;;;1.20;99.90;;;;;;5069147;28;20108;-39
2023/01/20 09:13:33;;;;;;;30.05;18.17;;;1.30;99.90;;;;;;5079214;28;20587;-39
2023/01/20 09:15:58;;;;;;;40.38;20.50;;;1.30;99.90;;;;;;5080302;28;20023;-40
2023/01/20 09:18:24;;;;;;;36.20;18.38;;;1.40;99.90;;;;;;5071509;28;20024;-40
2023/01/20 09:20:50;;;;;;;30.90;17.52;;;1.50;99.90;;;;;;5077979;28;20023;-40
2023/01/20 09:23:16;;;;;;;32.95;17.80;;;1.50;99.90;;;;;;5075878;28;20028;-40
2023/01/20 09:25:42;;;;;;;33.65;17.50;;;1.60;99.90;;;;;;5070226;28;20032;-40
2023/01/20 09:28:07;;;;;;;41.80;21.33;;;1.60;99.90;;;;;;5083533;28;20024;-40
2023/01/20 09:30:33;;;;;;;38.38;20.02;;;1.70;99.90;;;;;;5069908;28;20040;-40
2023/01/20 09:32:59;;;;;;;41.47;19.85;;;1.80;99.90;;;;;;5072376;28;20027;-40
2023/01/20 09:35:25;;;;;;;44.45;19.52;;;1.80;99.90;;;;;;5066905;28;20028;-40
2023/01/20 09:43:59;;;;;;;48.53;20.08;;;1.90;99.90;;;;;;5081860;28;20038;-40
2023/01/20 09:46:32;;;;;;;38.33;20.00;;;1.90;99.90;;;;;;5074126;28;20442;-40
2023/01/20 09:55:16;;;;;;;44.05;19.80;;;2.00;99.90;;;;;;5069662;28;20031;-41
2023/01/20 09:57:47;;;;;;;35.80;18.85;;;2.00;99.90;;;;;;5076695;28;20024;-40
2023/01/20 10:00:21;;;;;;;34.58;18.35;;;2.00;99.90;;;;;;5068785;28;20492;-40
2023/01/20 10:02:51;;;;;;;33.45;17.85;;;2.10;99.90;;;;;;5081372;28;20385;-40
2023/01/20 10:05:20;;;;;;;30.70;17.65;;;2.20;99.90;;;;;;5062914;28;20039;-40
2023/01/20 10:07:56;;;;;;;27.83;15.65;;;2.40;99.90;;;;;;5074150;28;20036;-40
2023/01/20 10:10:31;;;;;;;30.98;17.95;;;2.40;99.90;;;;;;5076080;28;20044;-40
2023/01/20 10:13:16;;;;;;;31.10;17.52;;;2.60;99.90;;;;;;5069597;28;20024;-40
2023/01/20 10:15:47;;;;;;;37.45;19.88;;;2.70;99.90;;;;;;5078478;28;20089;-40
2023/01/20 10:18:20;;;;;;;32.92;18.23;;;2.70;99.90;;;;;;5076148;28;20393;-40
2023/01/20 10:20:50;;;;;;;31.65;18.25;;;2.80;99.90;;;;;;5068500;28;20081;-40
2023/01/20 10:23:20;;;;;;;32.70;17.60;;;3.00;99.90;;;;;;5073773;28;20063;-40
2023/01/20 10:26:08;;;;;;;43.30;19.48;;;2.90;99.90;;;;;;5074414;28;20025;-40
2023/01/20 10:28:44;;;;;;;32.38;16.90;;;2.90;99.90;;;;;;5074043;28;20025;-40
2023/01/20 10:31:16;;;;;;;31.48;16.65;;;2.90;99.90;;;;;;5080687;28;20031;-40
2023/01/20 10:33:43;;;;;;;32.72;16.75;;;3.20;99.90;;;;;;5066412;28;20251;-40
2023/01/20 10:36:20;;;;;;;28.48;15.98;;;3.80;99.90;;;;;;5066869;28;20047;-40
2023/01/20 10:39:29;;;;;;;25.70;15.00;;;5.20;99.90;;;;;;5074064;28;20025;-41
2023/01/20 10:42:04;;;;;;;27.27;16.00;;;7.00;99.90;;;;;;5032414;28;21019;-40
2023/01/20 10:44:33;;;;;;;24.17;14.52;;;8.50;99.90;;;;;;5072822;28;20504;-41
2023/01/20 10:47:04;;;;;;;26.55;14.75;;;10.00;99.50;;;;;;5076628;28;20024;-41
2023/01/20 10:49:57;;;;;;;20.45;14.27;;;11.30;94.10;;;;;;5075853;28;20024;-43
2023/01/20 10:52:38;;;;;;;22.25;14.30;;;11.20;91.90;;;;;;5067360;28;20040;-40
2023/01/20 10:55:21;;;;;;;24.35;14.98;;;12.20;87.90;;;;;;5070601;28;20508;-42
2023/01/20 10:57:51;;;;;;;19.65;12.70;;;12.60;85.30;;;;;;5077102;28;20035;-41
2023/01/20 11:00:24;;;;;;;23.35;15.07;;;13.40;82.60;;;;;;5065025;28;20035;-43
2023/01/20 11:02:51;;;;;;;23.40;14.10;;;12.80;81.50;;;;;;5069914;28;20446;-42
2023/01/20 11:05:21;;;;;;;20.48;13.90;;;13.10;79.10;;;;;;5076548;28;20046;-41
2023/01/20 11:07:49;;;;;;;18.95;13.57;;;13.30;79.90;;;;;;5066796;28;20319;-42
2023/01/20 11:10:18;;;;;;;20.05;14.63;;;13.10;78.50;;;;;;5071360;28;20035;-41
2023/01/20 11:12:47;;;;;;;27.55;14.95;;;13.30;76.20;;;;;;5081469;28;20028;-39
2023/01/20 11:15:33;;;;;;;21.98;13.60;;;13.80;78.20;;;;;;5072411;28;20047;-41
2023/01/20 11:18:13;;;;;;;16.92;14.35;;;13.80;74.40;;;;;;5060733;28;20060;-39
2023/01/20 11:20:49;;;;;;;20.98;14.77;;;13.60;75.80;;;;;;5063245;28;20021;-39
2023/01/20 11:23:20;;;;;;;17.33;13.25;;;14.80;72.00;;;;;;5070319;28;20025;-40
2023/01/20 11:25:57;;;;;;;22.90;13.60;;;14.40;71.50;;;;;;5059788;28;20413;-40
2023/01/20 11:28:24;;;;;;;20.77;12.80;;;14.70;71.90;;;;;;5064294;28;20024;-41
2023/01/20 11:30:52;;;;;;;20.65;14.43;;;14.60;71.70;;;;;;5062741;28;20020;-41
2023/01/20 11:33:25;;;;;;;18.48;12.77;;;14.50;70.70;;;;;;5054901;28;20056;-40
2023/01/20 11:35:57;;;;;;;20.58;12.27;;;14.50;71.60;;;;;;5063900;28;20017;-40
2023/01/20 11:38:29;;;;;;;20.25;13.98;;;14.90;69.20;;;;;;5064278;28;20031;-39
2023/01/20 11:40:56;;;;;;;22.70;15.30;;;14.70;69.90;;;;;;5056924;28;20009;-41
2023/01/20 11:43:36;;;;;;;22.63;15.43;;;14.40;68.80;;;;;;5065037;28;20174;-40
2023/01/20 11:46:21;;;;;;;19.20;13.27;;;14.70;68.10;;;;;;5066337;28;20671;-41
2023/01/20 11:48:47;;;;;;;21.38;13.98;;;14.40;68.30;;;;;;5066727;28;20032;-41
2023/01/20 11:51:24;;;;;;;19.92;14.98;;;14.40;69.20;;;;;;5067337;28;20468;-40
2023/01/20 11:53:50;;;;;;;25.02;17.70;;;14.50;69.60;;;;;;5072441;28;20043;-42
2023/01/20 11:56:25;;;;;;;22.20;15.25;;;13.70;68.20;;;;;;5067221;28;20032;-41
2023/01/20 11:59:00;;;;;;;21.10;14.73;;;13.80;70.80;;;;;;5081251;28;20476;-41
2023/01/20 12:01:56;;;;;;;21.48;14.85;;;13.90;71.40;;;;;;5072150;28;20036;-43
2023/01/20 12:04:30;;;;;;;23.20;15.27;;;13.60;69.80;;;;;;5073534;28;20031;-41
2023/01/20 12:07:13;;;;;;;21.90;15.65;;;13.20;71.40;;;;;;5068465;28;20476;-41
2023/01/20 12:09:50;;;;;;;20.92;13.70;;;13.10;71.90;;;;;;5073511;28;20236;-41
2023/01/20 12:12:31;;;;;;;20.45;14.75;;;12.90;72.50;;;;;;5077645;28;20444;-41
2023/01/20 12:15:13;;;;;;;21.88;14.27;;;13.10;71.70;;;;;;5063967;28;20435;-40
2023/01/20 12:18:07;;;;;;;25.10;14.07;;;13.40;70.20;;;;;;5072672;28;20523;-41
2023/01/20 12:20:36;;;;;;;20.65;13.10;;;12.90;72.00;;;;;;5081486;28;20035;-44
2023/01/20 12:23:21;;;;;;;18.88;13.07;;;12.90;71.70;;;;;;5072039;28;20140;-43
2023/01/20 12:25:59;;;;;;;18.55;13.63;;;12.50;71.40;;;;;;5077335;28;20028;-41
2023/01/20 12:28:47;;;;;;;20.95;14.35;;;12.30;72.40;;;;;;5074936;28;20027;-41
2023/01/20 12:31:18;;;;;;;22.40;14.95;;;11.90;72.50;;;;;;5074832;28;20162;-40
2023/01/20 12:33:49;;;;;;;21.92;13.70;;;10.50;75.30;;;;;;5071756;28;20522;-39
2023/01/20 12:36:27;;;;;;;23.02;14.25;;;9.40;79.20;;;;;;5063481;28;20079;-40
2023/01/20 12:39:18;;;;;;;21.45;14.52;;;8.80;81.60;;;;;;5064488;28;20158;-40
2023/01/20 12:42:08;;;;;;;21.45;14.50;;;8.10;83.40;;;;;;5061826;28;20036;-39
2023/01/20 12:44:45;;;;;;;22.08;14.25;;;7.60;87.20;;;;;;5062957;28;20125;-40
2023/01/20 12:47:32;;;;;;;28.30;16.60;;;7.20;89.40;;;;;;5074571;28;20028;-40
2023/01/20 12:50:19;;;;;;;22.40;13.77;;;6.80;90.80;;;;;;5074218;28;20024;-40
2023/01/20 12:52:53;;;;;;;23.90;14.68;;;6.60;91.60;;;;;;5064500;28;20465;-40
2023/01/20 12:55:59;;;;;;;25.13;13.80;;;6.20;92.90;;;;;;5074651;28;20032;-41
2023/01/20 12:58:34;;;;;;;30.20;15.00;;;5.90;94.70;;;;;;5069205;28;20025;-40